M I D A S
Marine Information and Data Acquisition System
Tripno 336 of the Zeeleeuw from 2002-09-17 06:37:24 to 2002-09-17 14:37:17
Back to CruiseResearch ActivitiesStationsMapUnderway DataData graphs

EquipmentUnitsComments
TimeDGPSUTC
LatitudeDGPSDM.mWGS84
LongitudeDGPSDM.mWGS84
SpeedMeteo Stationm/sRelative wind speed
DirectionMeteo StationdegRelative wind direction
TemperatureMeteo Stationdeg CelciusAir temperature
PressureMeteo StationPaAtmospheric pressure
HumidityMeteo Station%Relative humidity
Missing or incorrect values are displayed as -999
Metereological data collected by the RV Zeeleeuw from 2002-09-17 06:37:24 to 2002-09-17 14:37:17
Time Latitude Longitude Speed Direction Temperature Pressure Humidity
2002-09-17 06:38 51°13.66 2°55.961 1.8 126 15 101840 77
2002-09-17 06:39 51°13.659 2°55.961 0.7 143 15 101840 77
2002-09-17 06:40 51°13.665 2°55.933 1.7 112 15 101840 77
2002-09-17 06:41 51°13.67 2°55.871 2.8 94 15.1 101840 77
2002-09-17 06:42 51°13.673 2°55.8 1.9 77 15 101840 77
2002-09-17 06:43 51°13.679 2°55.791 1 91 15.1 101840 77
2002-09-17 06:44 51°13.685 2°55.792 2 43 15.1 101830 77
2002-09-17 06:45 51°13.674 2°55.782 1.2 11 15.1 101840 77
2002-09-17 06:46 51°13.724 2°55.732 2.1 253 15.2 101830 77
2002-09-17 06:47 51°13.824 2°55.633 3.7 248 15.2 101830 77
2002-09-17 06:48 51°13.951 2°55.544 4.1 246 15.3 101830 76
2002-09-17 06:49 51°14.065 2°55.462 2.3 254 15.3 101830 76
2002-09-17 06:50 51°14.178 2°55.369 3 255 15.3 101830 76
2002-09-17 06:51 51°14.282 2°55.22 4.1 256 15.4 101830 75
2002-09-17 06:52 51°14.363 2°54.991 6.1 257 15.4 101830 75
2002-09-17 06:53 51°14.397 2°54.7 7.9 253 15.5 101830 75
2002-09-17 06:54 51°14.372 2°54.39 9.7 247 15.6 101820 75
2002-09-17 06:55 51°14.271 2°54.085 9.6 247 15.5 101820 75
2002-09-17 06:56 51°14.16 2°53.784 9.2 246 15.5 101820 75
2002-09-17 06:57 51°14.046 2°53.481 8.9 244 15.4 101820 75
2002-09-17 06:58 51°13.941 2°53.17 8.7 245 15.4 101830 76
2002-09-17 06:59 51°13.838 2°52.858 8.2 242 15.4 101810 75
2002-09-17 07:00 51°13.734 2°52.546 9.4 252 15.5 101830 75
2002-09-17 07:01 51°13.628 2°52.229 8.6 245 15.5 101820 75
2002-09-17 07:02 51°13.525 2°51.916 9.1 245 15.5 101820 76
2002-09-17 07:03 51°13.421 2°51.6 9.7 246 15.6 101830 76
2002-09-17 07:04 51°13.318 2°51.291 10.1 239 15.6 101820 77
2002-09-17 07:05 51°13.208 2°50.955 9.6 244 15.6 101820 76
2002-09-17 07:06 51°13.096 2°50.613 9.5 243 15.6 101820 76
2002-09-17 07:07 51°12.985 2°50.28 10.3 247 15.7 101830 76
2002-09-17 07:08 51°12.876 2°49.956 9.4 244 15.7 101810 75
2002-09-17 07:09 51°12.76 2°49.616 10.1 246 15.6 101810 74
2002-09-17 07:10 51°12.654 2°49.296 9.5 241 15.7 101820 74
2002-09-17 07:11 51°12.546 2°48.954 8.5 240 15.8 101820 73
2002-09-17 07:12 51°12.438 2°48.629 9.1 243 15.8 101820 72
2002-09-17 07:13 51°12.328 2°48.297 8.8 245 15.8 101820 72
2002-09-17 07:14 51°12.218 2°47.962 8.8 246 15.9 101820 73
2002-09-17 07:15 51°12.108 2°47.631 8.6 243 15.9 101820 72
2002-09-17 07:16 51°11.999 2°47.3 9.5 245 15.9 101820 72
2002-09-17 07:17 51°11.894 2°46.972 9.4 243 16 101830 73
2002-09-17 07:18 51°11.785 2°46.643 8.7 246 15.9 101820 72
2002-09-17 07:19 51°11.675 2°46.315 8.4 245 15.9 101810 72
2002-09-17 07:20 51°11.568 2°45.976 9 241 15.9 101820 72
2002-09-17 07:21 51°11.477 2°45.639 8.5 246 16 101830 72
2002-09-17 07:22 51°11.386 2°45.301 8.1 246 16 101830 72
2002-09-17 07:23 51°11.294 2°44.955 9.1 248 16 101830 72
2002-09-17 07:24 51°11.2 2°44.606 8.2 245 16 101830 71
2002-09-17 07:25 51°11.108 2°44.266 8.7 250 16 101830 71
2002-09-17 07:26 51°11.014 2°43.927 8.4 257 16.1 101830 71
2002-09-17 07:27 51°10.924 2°43.592 6.8 253 16.1 101820 71
2002-09-17 07:28 51°10.845 2°43.229 7.5 244 16.1 101830 70
2002-09-17 07:29 51°10.768 2°42.884 8 251 16.2 101830 70
2002-09-17 07:30 51°10.688 2°42.531 7.4 250 16.1 101830 68
2002-09-17 07:31 51°10.611 2°42.182 6 248 16.2 101830 68
2002-09-17 07:32 51°10.536 2°41.832 7.2 255 16.2 101830 68
2002-09-17 07:33 51°10.455 2°41.493 6.8 259 16.2 101830 67
2002-09-17 07:34 51°10.374 2°41.149 6.5 256 16.3 101830 67
2002-09-17 07:35 51°10.305 2°40.799 6.7 269 16.3 101840 68
2002-09-17 07:36 51°10.235 2°40.444 5.3 222 16.3 101840 66
2002-09-17 07:37 51°10.168 2°40.094 5.5 210 16.3 101840 61
2002-09-17 07:38 51°10.092 2°39.749 5.9 209 16.3 101840 60
2002-09-17 07:39 51°9.999 2°39.412 5.4 215 16.4 101840 59
2002-09-17 07:40 51°9.91 2°39.073 5.3 209 16.5 101840 58
2002-09-17 07:41 51°9.822 2°38.734 5.1 209 16.6 101840 56
2002-09-17 07:42 51°9.732 2°38.405 5.8 208 16.7 101840 55
2002-09-17 07:43 51°9.64 2°38.064 6.7 211 16.7 101840 57
2002-09-17 07:44 51°9.55 2°37.737 5.2 216 16.8 101850 54
2002-09-17 07:45 51°9.459 2°37.409 4.7 214 16.8 101850 54
2002-09-17 07:46 51°9.366 2°37.066 5.2 199 16.8 101840 52
2002-09-17 07:47 51°9.274 2°36.731 4.7 213 16.8 101840 53
2002-09-17 07:48 51°9.184 2°36.393 4.9 201 16.9 101850 56
2002-09-17 07:49 51°9.093 2°36.056 4.2 198 16.8 101840 54
2002-09-17 07:50 51°8.998 2°35.715 3.9 193 16.9 101850 58
2002-09-17 07:51 51°8.907 2°35.378 4.9 198 16.9 101840 57
2002-09-17 07:52 51°8.815 2°35.04 4.9 186 16.9 101850 58
2002-09-17 07:53 51°8.724 2°34.708 4.3 208 16.9 101850 56
2002-09-17 07:54 51°8.628 2°34.367 5.6 184 16.9 101830 58
2002-09-17 07:55 51°8.511 2°34.06 4.9 182 16.9 101850 54
2002-09-17 07:56 51°8.38 2°33.756 5.3 184 16.9 101840 55
2002-09-17 07:57 51°8.252 2°33.449 4.3 193 16.9 101850 57
2002-09-17 07:58 51°8.119 2°33.144 4.5 182 16.9 101850 53
2002-09-17 07:59 51°7.991 2°32.854 3.2 180 16.9 101850 56
2002-09-17 08:00 51°7.856 2°32.555 2.7 178 16.9 101850 55
2002-09-17 08:01 51°7.719 2°32.271 3.3 197 16.9 101850 57
2002-09-17 08:02 51°7.578 2°31.993 3.5 200 17 101860 57
2002-09-17 08:03 51°7.432 2°31.725 4.6 183 17 101850 54
2002-09-17 08:04 51°7.277 2°31.442 4.6 184 17 101860 57
2002-09-17 08:05 51°7.131 2°31.172 4.8 212 17 101850 54
2002-09-17 08:06 51°6.957 2°30.93 3.7 236 17 101850 53
2002-09-17 08:07 51°6.769 2°30.86 3 256 17 101850 53
2002-09-17 08:08 51°6.609 2°30.89 3.7 276 17 101850 52
2002-09-17 08:09 51°6.47 2°30.984 4.9 294 17 101850 53
2002-09-17 08:10 51°6.426 2°31.193 11.2 251 17 101840 54
2002-09-17 08:11 51°6.508 2°31.447 11.6 246 17.1 101830 53
2002-09-17 08:12 51°6.6 2°31.714 11.7 243 17 101840 52
2002-09-17 08:13 51°6.695 2°31.992 9.1 250 17 101830 54
2002-09-17 08:14 51°6.776 2°32.269 8.2 255 17.1 101840 52
2002-09-17 08:15 51°6.83 2°32.493 8.4 247 17.1 101850 55
2002-09-17 08:16 51°6.871 2°32.702 7 267 17.1 101850 54
2002-09-17 08:17 51°6.798 2°32.791 3.9 6 17.1 101850 57
2002-09-17 08:18 51°6.788 2°32.796 2.5 45 17.1 101860 63
2002-09-17 08:19 51°6.801 2°32.73 1.7 129 17.1 101850 64
2002-09-17 08:20 51°6.826 2°32.637 2.1 58 17.1 101860 64
2002-09-17 08:21 51°6.826 2°32.634 2.9 33 17.1 101860 65
2002-09-17 08:22 51°6.82 2°32.63 2.1 20 17.1 101870 64
2002-09-17 08:23 51°6.816 2°32.618 1.9 16 17 101860 63
2002-09-17 08:24 51°6.814 2°32.606 2.6 22 17 101870 63
2002-09-17 08:25 51°6.813 2°32.596 2 359 17 101870 62
2002-09-17 08:26 51°6.812 2°32.59 2.3 354 17 101870 66
2002-09-17 08:27 51°6.811 2°32.588 1.6 14 16.9 101870 66
2002-09-17 08:28 51°6.81 2°32.588 0.5 347 17 101870 68
2002-09-17 08:29 51°6.808 2°32.591 0.3 324 16.9 101870 68
2002-09-17 08:30 51°6.809 2°32.594 1 320 16.8 101870 67
2002-09-17 08:31 51°6.808 2°32.599 0.8 278 16.8 101870 67
2002-09-17 08:32 51°6.809 2°32.599 1.9 338 16.8 101870 68
2002-09-17 08:33 51°6.811 2°32.599 2.2 349 16.7 101880 67
2002-09-17 08:34 51°6.81 2°32.598 0.6 334 16.6 101870 65
2002-09-17 08:35 51°6.805 2°32.602 0.8 304 16.7 101870 67
2002-09-17 08:36 51°6.798 2°32.607 3 302 16.7 101880 67
2002-09-17 08:37 51°6.792 2°32.614 0.8 306 16.7 101880 68
2002-09-17 08:38 51°6.79 2°32.619 0.8 321 16.8 101880 68
2002-09-17 08:39 51°6.791 2°32.625 0.5 341 16.7 101870 68
2002-09-17 08:40 51°6.794 2°32.631 0.5 335 16.6 101870 68
2002-09-17 08:41 51°6.795 2°32.639 0.2 348 16.5 101870 68
2002-09-17 08:42 51°6.797 2°32.647 0.5 332 16.5 101870 68
2002-09-17 08:43 51°6.798 2°32.654 0.3 337 16.5 101880 68
2002-09-17 08:44 51°6.797 2°32.654 0.4 334 16.6 101870 70
2002-09-17 08:45 51°6.794 2°32.65 1.3 292 16.6 101880 69
2002-09-17 08:46 51°6.79 2°32.638 0.7 345 16.6 101870 69
2002-09-17 08:47 51°6.795 2°32.618 1.6 9 16.5 101880 68
2002-09-17 08:48 51°6.812 2°32.603 0.8 11 16.5 101880 69
2002-09-17 08:49 51°6.839 2°32.597 1.1 82 16.6 101880 69
2002-09-17 08:50 51°6.873 2°32.609 1.7 134 16.6 101880 66
2002-09-17 08:51 51°6.907 2°32.644 1.5 152 16.6 101880 67
2002-09-17 08:52 51°6.933 2°32.71 2.2 185 16.6 101880 68
2002-09-17 08:53 51°6.938 2°32.787 2.9 216 16.6 101880 69
2002-09-17 08:54 51°6.881 2°32.833 5.1 253 16.5 101880 69
2002-09-17 08:55 51°6.811 2°32.647 6.2 246 16.5 101880 68
2002-09-17 08:56 51°6.765 2°32.394 4.7 242 16.5 101870 67
2002-09-17 08:57 51°6.68 2°32.168 4.8 251 16.5 101880 67
2002-09-17 08:58 51°6.613 2°31.918 4.5 245 16.6 101880 66
2002-09-17 08:59 51°6.557 2°31.659 5.4 257 16.6 101870 66
2002-09-17 09:00 51°6.511 2°31.398 5.1 245 16.6 101880 65
2002-09-17 09:01 51°6.464 2°31.119 4.3 253 16.6 101880 65
2002-09-17 09:02 51°6.53 2°30.888 4.2 221 16.7 101880 65
2002-09-17 09:03 51°6.692 2°30.856 4 204 16.7 101870 63
2002-09-17 09:04 51°6.841 2°30.929 4.7 212 16.6 101880 66
2002-09-17 09:05 51°6.96 2°31.073 6.4 211 16.6 101880 66
2002-09-17 09:06 51°7.112 2°31.28 6.9 222 16.6 101880 65
2002-09-17 09:07 51°7.265 2°31.494 6.8 217 16.6 101870 65
2002-09-17 09:08 51°7.415 2°31.71 6.9 219 16.6 101870 64
2002-09-17 09:09 51°7.572 2°31.936 6.4 217 16.7 101880 66
2002-09-17 09:10 51°7.707 2°32.167 6.9 222 16.7 101880 68
2002-09-17 09:11 51°7.837 2°32.443 7.1 224 16.7 101880 65
2002-09-17 09:12 51°7.95 2°32.687 5.8 221 16.7 101880 63
2002-09-17 09:13 51°8.035 2°32.876 4.2 221 16.7 101880 63
2002-09-17 09:14 51°8.103 2°33.057 4.7 236 16.8 101870 61
2002-09-17 09:15 51°8.048 2°33.184 1.9 275 16.7 101880 60
2002-09-17 09:16 51°8.046 2°33.214 0.6 315 16.8 101880 61
2002-09-17 09:17 51°8.043 2°33.161 1.4 236 16.9 101890 61
2002-09-17 09:18 51°8.084 2°33.045 1.7 235 16.9 101880 59
2002-09-17 09:19 51°8.081 2°32.975 0.9 350 16.9 101880 59
2002-09-17 09:20 51°8.073 2°32.979 0.1 351 16.9 101880 58
2002-09-17 09:21 51°8.064 2°32.979 0.2 328 17 101890 60
2002-09-17 09:22 51°8.06 2°32.975 0.5 348 17 101880 60
2002-09-17 09:23 51°8.058 2°32.968 0.9 343 17 101890 59
2002-09-17 09:24 51°8.056 2°32.96 0.8 343 17.1 101880 59
2002-09-17 09:25 51°8.052 2°32.951 0.8 12 17.1 101880 58
2002-09-17 09:26 51°8.048 2°32.944 1.6 20 17.1 101880 58
2002-09-17 09:28 51°8.046 2°32.937 1.2 52 17.1 101890 58
2002-09-17 09:29 51°8.047 2°32.933 0.7 45 17.2 101890 59
2002-09-17 09:30 51°8.048 2°32.933 1.6 41 17.3 101890 60
2002-09-17 09:31 51°8.048 2°32.934 1.2 29 17.3 101880 58
2002-09-17 09:32 51°8.048 2°32.937 1.5 24 17.3 101880 58
2002-09-17 09:33 51°8.046 2°32.941 1.7 13 17.2 101890 58
2002-09-17 09:34 51°8.044 2°32.946 1.5 15 17.2 101890 59
2002-09-17 09:35 51°8.043 2°32.95 1.8 13 17.1 101880 58
2002-09-17 09:36 51°8.043 2°32.955 1.5 8 17.1 101890 59
2002-09-17 09:37 51°8.042 2°32.959 1.9 30 17.1 101880 59
2002-09-17 09:38 51°8.042 2°32.962 1.2 18 17.1 101880 58
2002-09-17 09:39 51°8.042 2°32.965 1.3 36 17.1 101890 59
2002-09-17 09:40 51°8.043 2°32.968 1.5 28 17.1 101890 59
2002-09-17 09:41 51°8.046 2°32.97 1.1 53 17.1 101890 57
2002-09-17 09:42 51°8.049 2°32.973 1.6 23 17.2 101890 58
2002-09-17 09:43 51°8.053 2°32.976 0.9 32 17.3 101890 58
2002-09-17 09:44 51°8.058 2°32.98 1.2 62 17.3 101890 57
2002-09-17 09:45 51°8.065 2°32.984 1.5 63 17.4 101890 57
2002-09-17 09:46 51°8.073 2°32.989 2.1 50 17.4 101880 59
2002-09-17 09:47 51°8.08 2°32.992 1.2 48 17.4 101880 58
2002-09-17 09:48 51°8.089 2°32.987 1 89 17.5 101890 58
2002-09-17 09:49 51°8.11 2°32.975 0.9 142 17.6 101890 57
2002-09-17 09:50 51°8.141 2°32.979 1.4 189 17.6 101880 57
2002-09-17 09:51 51°8.177 2°33.011 1.7 188 17.4 101890 57
2002-09-17 09:52 51°8.202 2°33.062 2.6 213 17.3 101880 59
2002-09-17 09:53 51°8.215 2°33.115 2.6 239 17.2 101890 58
2002-09-17 09:54 51°8.217 2°33.172 2.5 259 17.2 101890 59
2002-09-17 09:55 51°8.211 2°33.223 2.4 290 17.2 101880 58
2002-09-17 09:56 51°8.196 2°33.278 2.8 255 17.2 101880 61
2002-09-17 09:57 51°8.202 2°33.37 3.5 213 17.3 101890 60
2002-09-17 09:58 51°8.255 2°33.426 2.1 183 17.2 101880 61
2002-09-17 09:59 51°8.301 2°33.386 0.6 162 17.1 101890 60
2002-09-17 10:00 51°8.316 2°33.289 1.1 199 17.1 101890 60
2002-09-17 10:01 51°8.334 2°33.167 1.4 246 17.1 101890 59
2002-09-17 10:02 51°8.358 2°33.044 1.1 194 17.1 101890 59
2002-09-17 10:03 51°8.418 2°32.948 1.4 186 17.1 101880 59
2002-09-17 10:05 51°8.484 2°32.846 2.4 197 17.1 101880 59
2002-09-17 10:05 51°8.543 2°32.739 1.5 193 17 101880 57
2002-09-17 10:06 51°8.582 2°32.628 0.5 225 17 101880 57
2002-09-17 10:07 51°8.578 2°32.556 0.6 312 17.1 101880 58
2002-09-17 10:08 51°8.565 2°32.52 0.3 354 17.1 101890 57
2002-09-17 10:10 51°8.556 2°32.493 0.4 338 17.2 101890 58
2002-09-17 10:10 51°8.548 2°32.469 1.3 5 17.3 101890 59
2002-09-17 10:11 51°8.536 2°32.449 0.5 325 17.3 101880 57
2002-09-17 10:12 51°8.524 2°32.427 1 353 17.3 101890 56
2002-09-17 10:13 51°8.52 2°32.402 0.4 18 17.3 101890 57
2002-09-17 10:15 51°8.522 2°32.379 0.7 71 17.4 101890 56
2002-09-17 10:15 51°8.52 2°32.36 0.5 15 17.5 101890 56
2002-09-17 10:16 51°8.515 2°32.344 1.1 15 17.6 101880 58
2002-09-17 10:17 51°8.512 2°32.331 1 68 17.6 101880 58
2002-09-17 10:18 51°8.51 2°32.323 1.5 65 17.7 101890 57
2002-09-17 10:19 51°8.509 2°32.317 1.2 68 17.7 101880 56
2002-09-17 10:20 51°8.508 2°32.314 1.4 47 17.7 101880 57
2002-09-17 10:21 51°8.507 2°32.312 1 55 17.7 101880 56
2002-09-17 10:22 51°8.507 2°32.311 1.3 32 17.7 101880 56
2002-09-17 10:23 51°8.509 2°32.312 1.7 68 17.7 101880 55
2002-09-17 10:24 51°8.511 2°32.313 1.6 77 17.6 101880 55
2002-09-17 10:26 51°8.513 2°32.316 1.3 76 17.5 101880 54
2002-09-17 10:26 51°8.516 2°32.318 1.6 316 17.5 101880 56
2002-09-17 10:27 51°8.518 2°32.318 0.9 30 17.4 101880 55
2002-09-17 10:28 51°8.518 2°32.314 1.4 52 17.4 101880 56
2002-09-17 10:29 51°8.52 2°32.309 1.6 74 17.4 101880 56
2002-09-17 10:30 51°8.522 2°32.301 1.3 52 17.5 101880 56
2002-09-17 10:32 51°8.523 2°32.292 0.9 60 17.5 101880 56
2002-09-17 10:33 51°8.526 2°32.283 1.2 52 17.6 101870 56
2002-09-17 10:34 51°8.528 2°32.273 0.8 65 17.7 101870 57
2002-09-17 10:35 51°8.529 2°32.264 1.2 68 17.7 101870 56
2002-09-17 10:36 51°8.532 2°32.257 1.3 65 17.7 101880 59
2002-09-17 10:37 51°8.534 2°32.251 1.6 93 17.7 101870 56
2002-09-17 10:38 51°8.537 2°32.248 1.8 93 17.5 101870 55
2002-09-17 10:39 51°8.541 2°32.24 2.1 106 17.5 101870 57
2002-09-17 10:40 51°8.551 2°32.227 2 113 17.4 101870 57
2002-09-17 10:41 51°8.566 2°32.214 1.9 124 17.4 101870 56
2002-09-17 10:42 51°8.588 2°32.206 2.1 143 17.4 101870 57
2002-09-17 10:43 51°8.612 2°32.206 2.2 183 17.4 101870 58
2002-09-17 10:44 51°8.638 2°32.215 2.6 206 17.3 101870 56
2002-09-17 10:45 51°8.667 2°32.239 2.6 197 17.2 101870 59
2002-09-17 10:46 51°8.691 2°32.274 2.6 216 17.1 101870 57
2002-09-17 10:47 51°8.712 2°32.318 2.7 216 17.1 101870 59
2002-09-17 10:48 51°8.735 2°32.363 2.8 204 17.1 101870 59
2002-09-17 10:49 51°8.759 2°32.399 2.7 189 17.1 101870 60
2002-09-17 10:50 51°8.788 2°32.432 2 193 17.1 101870 61
2002-09-17 10:51 51°8.818 2°32.46 2.6 212 17.1 101870 59
2002-09-17 10:52 51°8.846 2°32.491 2.4 206 17 101870 59
2002-09-17 10:53 51°8.876 2°32.527 2.9 208 17 101870 59
2002-09-17 10:54 51°8.904 2°32.567 3.4 209 17 101870 60
2002-09-17 10:55 51°8.932 2°32.604 3.1 211 17 101870 57
2002-09-17 10:56 51°8.961 2°32.641 3.4 210 17 101870 56
2002-09-17 10:57 51°8.991 2°32.676 3.4 204 17 101870 57
2002-09-17 10:58 51°9.018 2°32.705 3.1 212 17 101870 57
2002-09-17 10:59 51°9.048 2°32.736 3.1 212 17 101870 58
2002-09-17 11:00 51°9.077 2°32.771 3.6 215 17 101870 58
2002-09-17 11:01 51°9.107 2°32.804 3.8 213 17 101870 58
2002-09-17 11:02 51°9.133 2°32.835 3 224 17.1 101870 57
2002-09-17 11:03 51°9.155 2°32.867 3 211 17.1 101870 57
2002-09-17 11:04 51°9.179 2°32.882 2.5 167 17.1 101870 58
2002-09-17 11:05 51°9.203 2°32.869 2.3 125 17.1 101880 59
2002-09-17 11:06 51°9.212 2°32.822 1 58 17.1 101880 59
2002-09-17 11:07 51°9.201 2°32.775 2.5 33 17.2 101870 60
2002-09-17 11:08 51°9.177 2°32.739 3 12 17.3 101870 58
2002-09-17 11:09 51°9.15 2°32.715 2.9 18 17.2 101870 59
2002-09-17 11:10 51°9.127 2°32.691 2.7 23 17.3 101870 60
2002-09-17 11:11 51°9.104 2°32.682 2.3 343 17.3 101870 60
2002-09-17 11:12 51°9.081 2°32.682 2.2 341 17.2 101870 57
2002-09-17 11:13 51°9.061 2°32.688 2.1 347 17.2 101870 58
2002-09-17 11:14 51°9.041 2°32.697 1 336 17.1 101870 57
2002-09-17 11:15 51°9.03 2°32.707 1.1 340 17.1 101870 59
2002-09-17 11:16 51°9.023 2°32.717 1.3 312 17.2 101870 60
2002-09-17 11:17 51°9.029 2°32.722 1 327 17.1 101870 57
2002-09-17 11:18 51°9.047 2°32.728 3.4 355 17.1 101870 58
2002-09-17 11:19 51°9.061 2°32.732 1.3 337 17.1 101870 60
2002-09-17 11:20 51°9.071 2°32.737 4.3 357 17.1 101870 59
2002-09-17 11:21 51°9.077 2°32.742 1.5 336 17.1 101870 59
2002-09-17 11:22 51°9.078 2°32.747 1.2 336 17.2 101870 60
2002-09-17 11:23 51°9.078 2°32.752 1 339 17.2 101870 60
2002-09-17 11:24 51°9.075 2°32.758 2.5 345 17.2 101870 60
2002-09-17 11:25 51°9.071 2°32.764 2.5 343 17.1 101870 59
2002-09-17 11:26 51°9.068 2°32.77 4.4 6 17.1 101870 60
2002-09-17 11:27 51°9.071 2°32.775 2.7 347 17.1 101870 60
2002-09-17 11:28 51°9.082 2°32.779 5 14 17.2 101870 63
2002-09-17 11:29 51°9.105 2°32.787 5.1 19 17.1 101870 59
2002-09-17 11:30 51°9.114 2°32.79 3 47 17.1 101870 58
2002-09-17 11:31 51°9.093 2°32.745 3.2 77 17.1 101870 60
2002-09-17 11:32 51°9.073 2°32.696 3 83 17.1 101880 61
2002-09-17 11:33 51°9.062 2°32.656 3.3 73 17.1 101870 59
2002-09-17 11:34 51°9.057 2°32.63 4.4 82 17.2 101870 61
2002-09-17 11:35 51°9.056 2°32.613 3.6 94 17.1 101880 59
2002-09-17 11:36 51°9.056 2°32.608 3.5 103 17.1 101870 60
2002-09-17 11:37 51°9.054 2°32.621 4.7 90 17.1 101880 61
2002-09-17 11:38 51°9.049 2°32.671 4.7 83 17.1 101870 59
2002-09-17 11:39 51°9.05 2°32.713 4.2 86 17.1 101880 60
2002-09-17 11:40 51°9.052 2°32.746 3.4 75 17 101870 62
2002-09-17 11:41 51°9.053 2°32.764 3.1 49 17 101880 58
2002-09-17 11:42 51°9.051 2°32.769 2.6 47 17.1 101880 60
2002-09-17 11:43 51°9.047 2°32.77 3.5 47 17.4 101880 57
2002-09-17 11:44 51°9.042 2°32.766 3.4 62 17.6 101880 57
2002-09-17 11:45 51°9.042 2°32.717 3.1 140 17.7 101880 56
2002-09-17 11:46 51°9.066 2°32.678 3.4 159 17.6 101880 56
2002-09-17 11:47 51°9.086 2°32.658 3.5 166 17.5 101880 60
2002-09-17 11:48 51°9.098 2°32.646 3.3 149 17.4 101880 58
2002-09-17 11:49 51°9.106 2°32.638 2.9 139 17.3 101880 58
2002-09-17 11:50 51°9.111 2°32.634 2.7 140 17.3 101880 58
2002-09-17 11:51 51°9.11 2°32.635 3.3 125 17.3 101880 60
2002-09-17 11:52 51°9.107 2°32.639 2.6 127 17.3 101880 60
2002-09-17 11:53 51°9.103 2°32.649 2.7 118 17.3 101890 57
2002-09-17 11:54 51°9.1 2°32.66 3.7 100 17.3 101880 60
2002-09-17 11:55 51°9.097 2°32.67 3.3 106 17.2 101880 58
2002-09-17 11:56 51°9.097 2°32.679 2.5 77 17.2 101880 59
2002-09-17 11:57 51°9.096 2°32.685 2.3 82 17.2 101890 57
2002-09-17 11:58 51°9.098 2°32.672 2.7 109 17.2 101880 61
2002-09-17 11:59 51°9.109 2°32.645 3.2 161 17.2 101880 60
2002-09-17 12:00 51°9.13 2°32.619 3.3 163 17.2 101880 58
2002-09-17 12:01 51°9.156 2°32.601 3 181 17.1 101880 59
2002-09-17 12:02 51°9.185 2°32.589 3.1 177 17 101870 59
2002-09-17 12:03 51°9.219 2°32.591 4.5 222 17 101870 59
2002-09-17 12:04 51°9.245 2°32.621 4.3 247 17 101880 60
2002-09-17 12:05 51°9.252 2°32.664 4.7 293 17.1 101870 59
2002-09-17 12:06 51°9.241 2°32.703 3.4 312 17.2 101870 61
2002-09-17 12:07 51°9.218 2°32.838 7.8 244 17.2 101870 60
2002-09-17 12:08 51°9.244 2°33.103 8.6 243 17.2 101860 58
2002-09-17 12:09 51°9.283 2°33.442 11 247 17.2 101850 60
2002-09-17 12:10 51°9.295 2°33.819 11.1 244 17.3 101850 60
2002-09-17 12:11 51°9.299 2°34.199 11.6 247 17.2 101850 59
2002-09-17 12:12 51°9.273 2°34.565 10.2 245 17.2 101850 59
2002-09-17 12:13 51°9.261 2°34.959 10.8 246 17.2 101850 60
2002-09-17 12:14 51°9.243 2°35.334 10.5 243 17.2 101850 60
2002-09-17 12:15 51°9.225 2°35.71 10.4 247 17.2 101860 59
2002-09-17 12:16 51°9.206 2°36.088 11 243 17.2 101860 60
2002-09-17 12:17 51°9.178 2°36.477 11 247 17.2 101860 60
2002-09-17 12:18 51°9.177 2°36.746 7.5 238 17.1 101860 61
2002-09-17 12:19 51°9.22 2°36.911 6.4 236 17.1 101870 59
2002-09-17 12:20 51°9.257 2°37.038 5.4 258 17 101870 59
2002-09-17 12:21 51°9.18 2°37.123 2.6 296 17 101870 59
2002-09-17 12:22 51°9.122 2°37.182 3.4 294 17 101870 59
2002-09-17 12:23 51°9.107 2°37.194 3.1 19 17 101870 60
2002-09-17 12:24 51°9.112 2°37.194 1.8 357 17 101870 60
2002-09-17 12:25 51°9.105 2°37.189 1.4 342 17 101870 60
2002-09-17 12:26 51°9.096 2°37.183 1.3 7 16.9 101870 59
2002-09-17 12:27 51°9.086 2°37.176 0.8 359 16.9 101880 60
2002-09-17 12:28 51°9.075 2°37.169 1 11 17 101880 61
2002-09-17 12:29 51°9.065 2°37.162 0.7 11 17 101870 60
2002-09-17 12:30 51°9.056 2°37.154 0.5 54 17 101870 60
2002-09-17 12:31 51°9.047 2°37.146 1.8 26 17.1 101870 61
2002-09-17 12:32 51°9.034 2°37.13 1.1 22 17.1 101870 61
2002-09-17 12:33 51°9.022 2°37.103 1.2 52 17.1 101880 60
2002-09-17 12:34 51°9.014 2°37.076 0.8 106 17.1 101880 59
2002-09-17 12:35 51°9.009 2°37.048 0.7 85 17.1 101880 59
2002-09-17 12:36 51°9.028 2°36.986 2.9 227 17.2 101870 60
2002-09-17 12:37 51°9.097 2°37.013 3.1 251 17.1 101870 59
2002-09-17 12:38 51°9.131 2°37.142 3.7 239 17.1 101870 60
2002-09-17 12:39 51°9.151 2°37.208 2.2 273 17.1 101860 60
2002-09-17 12:40 51°9.15 2°37.217 2.4 302 17.1 101860 59
2002-09-17 12:41 51°9.145 2°37.221 1.5 329 17.1 101860 59
2002-09-17 12:42 51°9.139 2°37.222 0.5 323 17.1 101870 59
2002-09-17 12:43 51°9.131 2°37.222 2.1 5 17 101870 59
2002-09-17 12:44 51°9.122 2°37.221 2.1 355 17 101870 59
2002-09-17 12:45 51°9.111 2°37.217 1.6 9 17 101870 60
2002-09-17 12:46 51°9.097 2°37.209 1.9 21 17 101870 60
2002-09-17 12:47 51°9.083 2°37.196 1.2 39 17 101870 59
2002-09-17 12:48 51°9.069 2°37.174 1.3 83 17 101870 59
2002-09-17 12:49 51°9.057 2°37.144 1.4 96 17.1 101870 59
2002-09-17 12:50 51°9.051 2°37.111 1.4 118 17.1 101870 60
2002-09-17 12:51 51°9.048 2°37.076 1.5 127 17.1 101870 60
2002-09-17 12:52 51°9.049 2°37.041 1.1 147 17.2 101870 60
2002-09-17 12:53 51°9.08 2°36.989 3.4 223 17.2 101880 59
2002-09-17 12:54 51°9.135 2°37.059 4.5 248 17.1 101870 60
2002-09-17 12:55 51°9.15 2°37.214 4.4 269 17.1 101870 60
2002-09-17 12:56 51°9.138 2°37.26 2.4 18 17.2 101870 59
2002-09-17 12:57 51°9.138 2°37.253 1.9 10 17.1 101870 59
2002-09-17 12:58 51°9.137 2°37.245 1.4 28 17.2 101880 60
2002-09-17 12:59 51°9.134 2°37.239 1.8 29 17.2 101880 60
2002-09-17 13:00 51°9.129 2°37.232 1.2 15 17.2 101880 59
2002-09-17 13:01 51°9.123 2°37.224 1.1 26 17.2 101870 59
2002-09-17 13:02 51°9.115 2°37.214 1.5 34 17.2 101870 59
2002-09-17 13:03 51°9.107 2°37.203 1.1 42 17.1 101880 59
2002-09-17 13:04 51°9.096 2°37.188 0.9 22 17.2 101870 59
2002-09-17 13:05 51°9.085 2°37.167 1.6 101 17.3 101870 61
2002-09-17 13:06 51°9.075 2°37.136 1.4 119 17.3 101870 59
2002-09-17 13:07 51°9.069 2°37.1 1.3 138 17.3 101870 59
2002-09-17 13:08 51°9.068 2°37.061 2 157 17.3 101870 59
2002-09-17 13:09 51°9.073 2°37.024 2.3 171 17.4 101870 60
2002-09-17 13:10 51°9.081 2°36.988 2.1 180 17.3 101870 59
2002-09-17 13:11 51°9.093 2°36.957 2.3 211 17.2 101870 59
2002-09-17 13:12 51°9.107 2°36.933 2.4 220 17.2 101870 60
2002-09-17 13:13 51°9.123 2°36.917 2.9 226 17.2 101860 61
2002-09-17 13:14 51°9.135 2°36.918 3.2 259 17.2 101860 60
2002-09-17 13:15 51°9.143 2°36.931 2.5 285 17.2 101860 60
2002-09-17 13:16 51°9.142 2°36.944 3.1 284 17.3 101860 61
2002-09-17 13:17 51°9.139 2°36.955 2.2 311 17.4 101860 60
2002-09-17 13:18 51°9.131 2°36.965 2.7 307 17.4 101870 62
2002-09-17 13:19 51°9.123 2°36.974 0.9 337 17.4 101860 60
2002-09-17 13:20 51°9.115 2°36.981 1.5 320 17.4 101860 62
2002-09-17 13:21 51°9.106 2°36.987 1.2 338 17.3 101860 62
2002-09-17 13:22 51°9.096 2°36.991 1.9 350 17.3 101860 61
2002-09-17 13:23 51°9.085 2°36.994 0.6 335 17.2 101860 62
2002-09-17 13:24 51°9.072 2°36.993 2.2 352 17.2 101860 61
2002-09-17 13:25 51°9.059 2°36.989 3.2 354 17.2 101860 63
2002-09-17 13:26 51°9.045 2°36.981 3.2 356 17.2 101860 65
2002-09-17 13:27 51°9.031 2°36.971 2.5 3 17.2 101860 63
2002-09-17 13:28 51°9.014 2°36.957 3.2 43 17.2 101860 67
2002-09-17 13:29 51°8.994 2°36.937 2.5 86 17.3 101860 66
2002-09-17 13:30 51°8.974 2°36.903 3.1 106 17.2 101860 65
2002-09-17 13:31 51°8.963 2°36.851 3.1 124 17.2 101850 66
2002-09-17 13:32 51°8.961 2°36.8 4.1 143 17.2 101850 66
2002-09-17 13:33 51°8.99 2°36.719 7.1 204 17.2 101850 67
2002-09-17 13:34 51°9.153 2°36.684 10.1 239 17 101840 66
2002-09-17 13:35 51°9.242 2°36.959 9.4 260 17.1 101830 67
2002-09-17 13:36 51°9.243 2°37.311 9.9 247 17.1 101840 67
2002-09-17 13:37 51°9.282 2°37.681 10.8 252 17.1 101830 66
2002-09-17 13:38 51°9.314 2°38.03 10.2 253 17.2 101830 66
2002-09-17 13:39 51°9.344 2°38.384 10.8 247 17.2 101830 67
2002-09-17 13:40 51°9.382 2°38.723 11.2 248 17.2 101830 67
2002-09-17 13:41 51°9.421 2°39.101 10.3 248 17.1 101830 66
2002-09-17 13:42 51°9.463 2°39.432 11.4 253 17.2 101830 68
2002-09-17 13:43 51°9.52 2°39.778 11.2 250 17.2 101830 68
2002-09-17 13:44 51°9.582 2°40.096 10 253 17.2 101830 68
2002-09-17 13:45 51°9.635 2°40.441 11.5 248 17.2 101830 69
2002-09-17 13:46 51°9.683 2°40.773 11 254 17.2 101820 69
2002-09-17 13:47 51°9.734 2°41.102 10.9 246 17.1 101830 69
2002-09-17 13:48 51°9.813 2°41.416 10.8 251 17.1 101820 69
2002-09-17 13:49 51°9.919 2°41.712 10.7 246 17.1 101820 69
2002-09-17 13:50 51°10.019 2°42.015 10.6 247 17.1 101820 69
2002-09-17 13:51 51°10.131 2°42.306 10.5 245 17.2 101820 69
2002-09-17 13:52 51°10.242 2°42.599 10.7 251 17.2 101830 70
2002-09-17 13:53 51°10.347 2°42.898 10.3 243 17.2 101820 70
2002-09-17 13:54 51°10.453 2°43.196 10.6 247 17.2 101820 69
2002-09-17 13:55 51°10.56 2°43.493 11.2 247 17.2 101820 70
2002-09-17 13:56 51°10.665 2°43.795 11.3 249 17.2 101820 69
2002-09-17 13:57 51°10.772 2°44.084 11.2 253 17.2 101820 70
2002-09-17 13:58 51°10.89 2°44.424 10.7 244 17.2 101820 70
2002-09-17 13:59 51°10.998 2°44.729 11.3 253 17.2 101820 70
2002-09-17 14:00 51°11.105 2°45.037 11.2 246 17.2 101820 70
2002-09-17 14:01 51°11.211 2°45.347 10.9 246 17.1 101810 70
2002-09-17 14:02 51°11.322 2°45.655 11 249 17.1 101810 70
2002-09-17 14:03 51°11.429 2°45.967 11.7 253 17.1 101810 70
2002-09-17 14:04 51°11.54 2°46.276 11.2 249 17.1 101810 70
2002-09-17 14:05 51°11.649 2°46.585 11.2 251 17.2 101800 71
2002-09-17 14:06 51°11.757 2°46.895 10.4 245 17.2 101810 71
2002-09-17 14:07 51°11.859 2°47.21 11 252 17.1 101810 71
2002-09-17 14:08 51°11.964 2°47.523 11.4 253 17.1 101800 71
2002-09-17 14:09 51°12.071 2°47.835 10.3 245 17.1 101810 72
2002-09-17 14:10 51°12.178 2°48.148 10.5 252 17.1 101810 71
2002-09-17 14:11 51°12.282 2°48.462 11.1 246 17.2 101810 72
2002-09-17 14:12 51°12.391 2°48.771 10.6 241 17.2 101800 71
2002-09-17 14:13 51°12.507 2°49.074 11.1 242 17.1 101810 71
2002-09-17 14:14 51°12.62 2°49.38 11.3 247 17.2 101810 73
2002-09-17 14:15 51°12.732 2°49.687 11.1 251 17.2 101800 72
2002-09-17 14:16 51°12.844 2°49.994 10.5 251 17.2 101800 73
2002-09-17 14:17 51°12.96 2°50.295 11.2 251 17.1 101800 73
2002-09-17 14:18 51°13.072 2°50.6 11.9 254 17.1 101800 74
2002-09-17 14:19 51°13.19 2°50.899 11.8 249 17.1 101800 75
2002-09-17 14:20 51°13.309 2°51.195 11.7 247 17.1 101800 76
2002-09-17 14:21 51°13.429 2°51.491 11.2 250 17.1 101800 76
2002-09-17 14:22 51°13.548 2°51.786 11.4 253 17.1 101790 76
2002-09-17 14:23 51°13.666 2°52.085 12.1 251 17 101800 77
2002-09-17 14:24 51°13.784 2°52.382 11.5 251 17.1 101790 77
2002-09-17 14:25 51°13.901 2°52.679 11.8 249 17 101790 76
2002-09-17 14:26 51°14.019 2°52.975 12.1 254 17.1 101800 77
2002-09-17 14:27 51°14.14 2°53.267 12 255 17.1 101800 76
2002-09-17 14:28 51°14.259 2°53.559 10.9 250 17 101800 76
2002-09-17 14:29 51°14.327 2°53.882 10.3 261 17 101810 75
2002-09-17 14:30 51°14.379 2°54.199 9.3 260 17.1 101810 75
2002-09-17 14:31 51°14.402 2°54.51 8.6 260 17.1 101810 75
2002-09-17 14:32 51°14.394 2°54.821 8.9 264 17.1 101810 74
2002-09-17 14:33 51°14.335 2°55.107 7.5 266 17.1 101810 74
2002-09-17 14:34 51°14.24 2°55.314 4.3 278 17.2 101820 74
2002-09-17 14:35 51°14.138 2°55.408 2.6 294 17.2 101820 73
2002-09-17 14:36 51°14.047 2°55.474 2.2 310 17.3 101820 72